Atlantic, VA

8:20 PM EDT on September 22, 2014 (GMT -0400)
KE5BM-13 | Change Station
CLOSE
Current Station
Personal Weather Station
Location: Wallops Island, VA
Elevation: 43 ft
Nearby Weather Stations

Elev 43 ft 37.92 °N, 75.48 °W | Updated 3 seconds ago

Clear
Clear
61.6 °F
Feels Like 61.6 °F
N
0.0
Wind Variable Wind from NW
Gusts 1.0 mph

Today
High -- | Low -- °F
--% Chance of Precip.
Yesterday
High -- | Low -- °F
Precip. -- in
6:49 AM 6:59 PM
Waning Crescent, 1% visible
Pressure 30.09 in
Visibility 10.0 miles
Clouds Clear
Dew Point 54 °F
Humidity 75%
Rainfall 0.00 in
Snow Depth Not available.
UV 0 out of 12
Pollen 5.10 out of 12
Air Quality Not available.
Flu Activity Not available.
METAR KWAL 222354Z AUTO 33004KT 10SM CLR 18/12 A3010 RMK AO2 SLP188 T01780117 10244 20178 53023

More Conditions Fewer Conditions

Pressure 30.09 in
Visibility 10.0 miles
Clouds Clear
Dew Point 54 °F
Humidity 75%
Rainfall 0.00 in
Snow Depth Not available.
UV 0 out of 12
Pollen 5.10 out of 12
Air Quality Not available.
Flu Activity Not available.
METAR KWAL 222354Z AUTO 33004KT 10SM CLR 18/12 A3010 RMK AO2 SLP188 T01780117 10244 20178 53023

More Conditions Fewer Conditions

10-Day Weather Forecast

Almanac

Astronomy

Sep. 22, 2014 Rise Set
Actual Time 6:49 AM EDT 6:59 PM EDT
Civil Twilight 6:23 AM EDT 7:25 PM EDT
Nautical Twilight 5:52 AM EDT 7:55 PM EDT
Astronomical Twilight 5:21 AM EDT 8:26 PM EDT
Moon 5:17 AM EDT (9/22) 6:04 PM EDT (9/22)
Length of Visible Light 13h 01m
Length of Day
12h 09m
Tomorrow will be 2m 26s shorter.
Waning Crescent, 1% of the Moon is Illuminated
Today
Waning Crescent
Sep 24
New
Oct 1
First Quarter
Oct 8
Full
Oct 15
Last Quarter

Today's Extremes

State Highs State Lows

Community

WunderPhotos

Upload Photos

1,755,574 photos uploaded!

Nearby

Snow Depth

Station Depth Elevation
No new snow has been reported.

Earthquake Activity

City Distance Mag. Time & Date
No recent earthquake activity has been reported nearby.
Minimum magnitude displayed is 2.5.

Coastal Water Temperatures

Place Temperature
Wachapreague, VA 75.0 °F
Ocean City Inlet, MD 72.0 °F
Kiptopeke, VA 79.0 °F
Bishops Head, MD 71.1 °F
Chesapeake Bay Bridge Tunnel, VA 75.0 °F
Cambridge, MD 73.0 °F

Nearby Weather Stations